createdAt,value
2023-03-12T00:01:00.329Z,0.00
2023-03-12T00:02:00.664Z,0.00
2023-03-12T00:03:01.024Z,0.00
2023-03-12T00:04:01.402Z,0.00
2023-03-12T00:05:01.683Z,0.00
2023-03-12T00:06:10.052Z,0.00
2023-03-12T00:07:03.179Z,0.00
2023-03-12T00:08:02.446Z,0.00
2023-03-12T00:09:02.774Z,0.00
2023-03-12T00:10:03.108Z,0.00
2023-03-12T00:11:03.450Z,0.00
2023-03-12T00:12:03.770Z,0.00
2023-03-12T00:13:04.128Z,0.00
2023-03-12T00:14:04.428Z,0.00
2023-03-12T00:15:04.774Z,0.00
2023-03-12T00:16:05.197Z,0.00
2023-03-12T00:17:05.391Z,0.00
2023-03-12T00:18:05.766Z,0.00
2023-03-12T00:19:05.987Z,0.00
2023-03-12T00:20:06.200Z,0.00
2023-03-12T00:21:06.529Z,0.00
2023-03-12T00:22:06.852Z,0.00
2023-03-12T00:23:07.180Z,0.00
2023-03-12T00:24:07.502Z,0.00
2023-03-12T00:25:07.841Z,0.00
2023-03-12T00:26:08.184Z,0.00
2023-03-12T00:27:08.529Z,0.00
2023-03-12T00:28:08.833Z,0.00
2023-03-12T00:29:09.156Z,0.00
2023-03-12T00:30:09.519Z,0.00
2023-03-12T00:31:09.752Z,0.00
2023-03-12T00:32:09.980Z,0.00
2023-03-12T00:33:10.178Z,0.00
2023-03-12T00:34:10.509Z,0.00
2023-03-12T00:35:10.864Z,0.00
2023-03-12T00:36:11.087Z,0.00
2023-03-12T00:37:11.310Z,0.00
2023-03-12T00:38:11.637Z,0.00
2023-03-12T00:39:11.975Z,0.00
2023-03-12T00:40:12.302Z,0.00
2023-03-12T00:41:12.649Z,0.00
2023-03-12T00:42:12.974Z,0.00
2023-03-12T00:43:13.301Z,0.00
2023-03-12T00:44:13.645Z,0.00
2023-03-12T00:45:14.018Z,0.00
2023-03-12T00:46:14.263Z,0.00
2023-03-12T00:47:14.452Z,0.00
2023-03-12T00:48:14.781Z,0.00
2023-03-12T00:49:15.130Z,0.00
2023-03-12T00:50:15.477Z,0.00
2023-03-12T00:51:15.696Z,0.00
2023-03-12T00:52:16.035Z,0.00
2023-03-12T00:53:16.371Z,0.00
2023-03-12T00:54:16.708Z,0.00
2023-03-12T00:55:17.054Z,0.00
2023-03-12T00:56:17.385Z,0.00
2023-03-12T00:57:18.469Z,0.00
2023-03-12T00:58:18.047Z,0.00
2023-03-12T00:59:18.278Z,0.00
2023-03-12T01:00:18.519Z,0.00
2023-03-12T01:01:18.751Z,0.00
2023-03-12T01:02:18.969Z,0.00
2023-03-12T01:03:19.311Z,0.00
2023-03-12T01:04:19.662Z,0.00
2023-03-12T01:05:19.991Z,0.00
2023-03-12T01:06:20.191Z,0.00
2023-03-12T01:07:20.525Z,0.00
2023-03-12T01:08:20.855Z,0.00
2023-03-12T01:09:21.187Z,0.00
2023-03-12T01:10:21.538Z,0.00
2023-03-12T01:11:21.764Z,0.00
2023-03-12T01:12:22.109Z,0.00
2023-03-12T01:13:22.454Z,0.00
2023-03-12T01:14:22.787Z,0.00
2023-03-12T01:15:23.038Z,0.00
2023-03-12T01:16:23.426Z,0.00
2023-03-12T01:17:23.660Z,0.00
2023-03-12T01:18:24.007Z,0.00
2023-03-12T01:19:24.203Z,0.00
2023-03-12T01:20:24.548Z,0.00
2023-03-12T01:21:24.850Z,0.00
2023-03-12T01:22:25.177Z,0.00
2023-03-12T01:23:25.546Z,0.00
2023-03-12T01:24:25.756Z,0.00
2023-03-12T01:25:26.108Z,0.00
2023-03-12T01:26:26.320Z,0.00
2023-03-12T01:27:26.663Z,0.00
2023-03-12T01:28:26.987Z,0.00
2023-03-12T01:29:27.342Z,0.00
2023-03-12T01:30:27.680Z,0.00
2023-03-12T01:31:28.049Z,0.00
2023-03-12T01:32:28.283Z,0.00
2023-03-12T01:33:28.499Z,0.00
2023-03-12T01:34:28.729Z,0.00
2023-03-12T01:35:29.148Z,0.00
2023-03-12T01:36:29.390Z,0.00
2023-03-12T01:37:29.677Z,0.00
2023-03-12T01:38:29.877Z,0.00
2023-03-12T01:39:30.236Z,0.00
2023-03-12T01:40:30.450Z,0.00
2023-03-12T01:41:30.786Z,0.00
2023-03-12T01:42:31.105Z,0.00
2023-03-12T01:43:31.447Z,0.00
2023-03-12T01:44:31.794Z,0.00
2023-03-12T01:45:32.139Z,0.00
2023-03-12T01:46:32.453Z,0.00
2023-03-12T01:47:32.810Z,0.00
2023-03-12T01:48:33.045Z,0.00
2023-03-12T01:49:33.265Z,0.00
2023-03-12T01:50:33.605Z,0.00
2023-03-12T01:51:33.863Z,0.00
2023-03-12T01:52:34.089Z,0.00
2023-03-12T01:53:34.314Z,0.00
2023-03-12T01:54:34.642Z,0.00
2023-03-12T01:55:34.983Z,0.00
2023-03-12T01:56:35.251Z,0.00
2023-03-12T01:57:35.472Z,0.00
2023-03-12T01:58:35.808Z,0.00
2023-03-12T01:59:36.142Z,0.00
2023-03-12T02:00:36.478Z,0.00
2023-03-12T02:01:36.832Z,0.00
2023-03-12T02:02:37.150Z,0.00
2023-03-12T02:03:37.507Z,0.00
2023-03-12T02:04:37.721Z,0.00
2023-03-12T02:05:38.074Z,0.00
2023-03-12T02:06:38.318Z,0.00
2023-03-12T02:07:38.614Z,0.00
2023-03-12T02:08:38.943Z,0.00
2023-03-12T02:09:39.295Z,0.00
2023-03-12T02:10:39.627Z,0.00
2023-03-12T02:11:39.973Z,0.00
2023-03-12T02:12:40.301Z,0.00
2023-03-12T02:13:40.626Z,0.00
2023-03-12T02:14:41.006Z,0.00
2023-03-12T02:15:41.218Z,0.00
2023-03-12T02:16:41.511Z,0.00
2023-03-12T02:17:41.757Z,0.00
2023-03-12T02:18:42.119Z,0.00
2023-03-12T02:19:42.319Z,0.00
2023-03-12T02:20:42.689Z,0.00
2023-03-12T02:21:42.888Z,0.00
2023-03-12T02:22:43.239Z,0.00
2023-03-12T02:23:43.449Z,0.00
2023-03-12T02:24:43.793Z,0.00
2023-03-12T02:25:44.120Z,0.00
2023-03-12T02:26:44.465Z,0.00
2023-03-12T02:27:44.780Z,0.00
2023-03-12T02:28:45.118Z,0.00
2023-03-12T02:29:45.448Z,0.00
2023-03-12T02:30:45.798Z,0.00
2023-03-12T02:31:46.203Z,0.00
2023-03-12T02:32:46.485Z,0.00
2023-03-12T02:33:46.744Z,0.00
2023-03-12T02:34:47.064Z,0.00
2023-03-12T02:35:47.445Z,0.00
2023-03-12T02:36:47.677Z,0.00
2023-03-12T02:37:48.017Z,0.00
2023-03-12T02:38:48.381Z,0.00
2023-03-12T02:39:48.580Z,0.00
2023-03-12T02:40:48.952Z,0.00
2023-03-12T02:41:49.152Z,0.00
2023-03-12T02:42:49.502Z,0.00
2023-03-12T02:43:49.702Z,0.00
2023-03-12T02:44:50.043Z,0.00
2023-03-12T02:45:50.435Z,0.00
2023-03-12T02:46:50.688Z,0.00
2023-03-12T02:47:50.883Z,0.00
2023-03-12T02:48:51.252Z,0.00
2023-03-12T02:49:51.463Z,0.00
2023-03-12T02:50:51.803Z,0.00
2023-03-12T02:51:52.139Z,0.00
2023-03-12T02:52:52.466Z,0.00
2023-03-12T02:53:52.793Z,0.00
2023-03-12T02:54:53.134Z,0.00
2023-03-12T02:55:53.473Z,0.00
2023-03-12T02:56:53.804Z,0.00
2023-03-12T02:57:54.152Z,0.00
2023-03-12T02:58:54.478Z,0.00
2023-03-12T02:59:54.820Z,0.00
2023-03-12T03:00:55.262Z,0.00
2023-03-12T03:01:55.472Z,0.00
2023-03-12T03:02:55.808Z,0.00
2023-03-12T03:03:56.181Z,0.00
2023-03-12T03:04:56.434Z,0.00
2023-03-12T03:05:56.775Z,0.00
2023-03-12T03:06:57.100Z,0.00
2023-03-12T03:07:57.424Z,0.00
2023-03-12T03:08:57.771Z,0.00
2023-03-12T03:09:58.084Z,0.00
2023-03-12T03:10:58.436Z,0.00
2023-03-12T03:11:58.755Z,0.00
2023-03-12T03:12:59.094Z,0.00
2023-03-12T03:13:59.436Z,0.00
2023-03-12T03:14:59.764Z,0.00
2023-03-12T03:16:00.155Z,0.00
2023-03-12T03:17:00.363Z,0.00
2023-03-12T03:18:00.692Z,0.00
2023-03-12T03:19:01.042Z,0.00
2023-03-12T03:20:01.257Z,0.00
2023-03-12T03:21:01.601Z,0.00
2023-03-12T03:22:09.433Z,0.00
2023-03-12T03:23:02.288Z,0.00
2023-03-12T03:24:02.515Z,0.00
2023-03-12T03:25:02.852Z,0.00
2023-03-12T03:26:03.217Z,0.00
2023-03-12T03:27:03.449Z,0.00
2023-03-12T03:28:03.649Z,0.00
2023-03-12T03:29:03.980Z,0.00
2023-03-12T03:30:04.312Z,0.00
2023-03-12T03:31:04.724Z,0.00
2023-03-12T03:32:04.938Z,0.00
2023-03-12T03:33:05.281Z,0.00
2023-03-12T03:34:05.606Z,0.00
2023-03-12T03:35:05.932Z,0.00
2023-03-12T03:36:06.276Z,0.00
2023-03-12T03:37:06.615Z,0.00
2023-03-12T03:38:06.978Z,0.00
2023-03-12T03:39:07.174Z,0.00
2023-03-12T03:40:07.510Z,0.00
2023-03-12T03:41:07.851Z,0.00
2023-03-12T03:42:08.193Z,0.00
2023-03-12T03:43:08.538Z,0.00
2023-03-12T03:44:08.776Z,0.00
2023-03-12T03:45:09.006Z,0.00
2023-03-12T03:46:09.418Z,0.00
2023-03-12T03:47:09.638Z,0.00
2023-03-12T03:48:09.962Z,0.00
2023-03-12T03:49:10.285Z,0.00
2023-03-12T03:50:10.653Z,0.00
2023-03-12T03:51:10.885Z,0.00
2023-03-12T03:52:11.119Z,0.00
2023-03-12T03:53:11.346Z,0.00
2023-03-12T03:54:11.551Z,0.00
2023-03-12T03:55:11.892Z,0.00
2023-03-12T03:56:12.240Z,0.00
2023-03-12T03:57:12.464Z,0.00
2023-03-12T03:58:12.789Z,0.00
2023-03-12T03:59:13.123Z,0.00
2023-03-12T04:00:13.890Z,0.00
2023-03-12T04:01:13.803Z,0.00
2023-03-12T04:02:14.009Z,0.00
2023-03-12T04:03:14.396Z,0.00
2023-03-12T04:04:14.631Z,0.00
2023-03-12T04:05:15.044Z,0.00
2023-03-12T04:06:15.270Z,0.00
2023-03-12T04:07:15.482Z,0.00
2023-03-12T04:08:15.821Z,0.00
2023-03-12T04:09:16.194Z,0.00
2023-03-12T04:10:16.412Z,0.00
2023-03-12T04:11:16.654Z,0.00
2023-03-12T04:12:16.873Z,0.00
2023-03-12T04:13:17.218Z,0.00
2023-03-12T04:14:17.577Z,0.00
2023-03-12T04:15:17.823Z,0.00
2023-03-12T04:16:18.173Z,0.00
2023-03-12T04:17:18.376Z,0.00
2023-03-12T04:18:18.744Z,0.00
2023-03-12T04:19:18.981Z,0.00
2023-03-12T04:20:19.214Z,0.00
2023-03-12T04:21:19.452Z,0.00
2023-03-12T04:22:19.653Z,0.00
2023-03-12T04:23:20.005Z,0.00
2023-03-12T04:24:20.231Z,0.00
2023-03-12T04:25:20.463Z,0.00
2023-03-12T04:26:20.696Z,0.00
2023-03-12T04:27:21.043Z,0.00
2023-03-12T04:28:21.262Z,0.00
2023-03-12T04:29:21.618Z,0.00
2023-03-12T04:30:21.875Z,0.00
2023-03-12T04:31:22.112Z,0.00
2023-03-12T04:32:22.393Z,0.00
2023-03-12T04:33:22.642Z,0.00
2023-03-12T04:34:22.865Z,0.00
2023-03-12T04:35:23.200Z,0.00
2023-03-12T04:36:23.575Z,0.00
2023-03-12T04:37:23.803Z,0.00
2023-03-12T04:38:24.062Z,0.00
2023-03-12T04:39:24.305Z,0.00
2023-03-12T04:40:24.537Z,0.00
2023-03-12T04:41:24.883Z,0.00
2023-03-12T04:42:25.120Z,0.00
2023-03-12T04:43:25.327Z,0.00
2023-03-12T04:44:25.675Z,0.00
2023-03-12T04:45:26.022Z,0.00
2023-03-12T04:46:26.288Z,0.00
2023-03-12T04:47:26.520Z,0.00
2023-03-12T04:48:26.841Z,0.00
2023-03-12T04:49:27.083Z,0.00
2023-03-12T04:50:27.311Z,0.00
2023-03-12T04:51:27.586Z,0.00
2023-03-12T04:52:27.810Z,4.00
2023-03-12T04:53:28.111Z,0.00
2023-03-12T04:54:28.351Z,0.00
2023-03-12T04:55:28.571Z,4.00
2023-03-12T04:56:28.973Z,4.00
2023-03-12T04:57:29.201Z,0.00
2023-03-12T04:58:29.571Z,4.00
2023-03-12T04:59:29.791Z,8.00
2023-03-12T05:00:30.011Z,4.00
2023-03-12T05:01:30.383Z,8.00
2023-03-12T05:02:30.627Z,8.00
2023-03-12T05:03:30.950Z,8.00
2023-03-12T05:04:33.551Z,8.00
2023-03-12T05:05:31.503Z,12.00
2023-03-12T05:06:31.864Z,12.00
2023-03-12T05:07:32.117Z,16.00
2023-03-12T05:08:32.363Z,20.00
2023-03-12T05:09:32.599Z,28.00
2023-03-12T05:10:32.826Z,32.00
2023-03-12T05:11:33.087Z,36.00
2023-03-12T05:12:33.356Z,40.00
2023-03-12T05:13:33.567Z,48.00
2023-03-12T05:14:33.908Z,64.00
2023-03-12T05:15:34.275Z,72.00
2023-03-12T05:16:34.578Z,84.00
2023-03-12T05:17:34.841Z,92.00
2023-03-12T05:18:35.066Z,104.00
2023-03-12T05:19:35.465Z,116.00
2023-03-12T05:20:35.610Z,128.00
2023-03-12T05:21:35.901Z,140.00
2023-03-12T05:22:36.157Z,156.00
2023-03-12T05:23:36.408Z,172.00
2023-03-12T05:24:36.644Z,188.00
2023-03-12T05:25:36.901Z,208.00
2023-03-12T05:26:37.156Z,224.00
2023-03-12T05:27:37.400Z,244.00
2023-03-12T05:28:37.649Z,264.00
2023-03-12T05:29:37.904Z,284.00
2023-03-12T05:30:38.153Z,308.00
2023-03-12T05:31:38.481Z,332.00
2023-03-12T05:32:38.680Z,356.00
2023-03-12T05:33:39.007Z,380.00
2023-03-12T05:34:39.237Z,424.00
2023-03-12T05:35:39.508Z,444.00
2023-03-12T05:36:39.761Z,480.00
2023-03-12T05:37:39.997Z,496.00
2023-03-12T05:38:40.225Z,520.00
2023-03-12T05:39:40.486Z,552.00
2023-03-12T05:40:40.746Z,580.00
2023-03-12T05:41:41.036Z,616.00
2023-03-12T05:42:41.252Z,648.00
2023-03-12T05:43:41.505Z,676.00
2023-03-12T05:44:41.746Z,708.00
2023-03-12T05:45:42.033Z,736.00
2023-03-12T05:46:42.278Z,764.00
2023-03-12T05:47:42.657Z,792.00
2023-03-12T05:48:42.887Z,828.00
2023-03-12T05:49:43.125Z,856.00
2023-03-12T05:50:43.378Z,884.00
2023-03-12T05:51:43.715Z,920.00
2023-03-12T05:52:44.095Z,960.00
2023-03-12T05:53:44.431Z,996.00
2023-03-12T05:54:44.607Z,1032.00
2023-03-12T05:55:44.946Z,1064.00
2023-03-12T05:56:45.267Z,1108.00
2023-03-12T05:57:45.525Z,1224.00
2023-03-12T05:58:45.767Z,1372.00
2023-03-12T05:59:46.056Z,1448.00
2023-03-12T06:00:46.343Z,1460.00
2023-03-12T06:01:46.697Z,1416.00
2023-03-12T06:02:46.833Z,1360.00
2023-03-12T06:03:47.235Z,1336.00
2023-03-12T06:04:47.599Z,1344.00
2023-03-12T06:05:47.799Z,1364.00
2023-03-12T06:06:48.005Z,1384.00
2023-03-12T06:07:48.256Z,1416.00
2023-03-12T06:08:48.565Z,1452.00
2023-03-12T06:09:48.853Z,1480.00
2023-03-12T06:10:49.149Z,1504.00
2023-03-12T06:11:49.596Z,1536.00
2023-03-12T06:12:49.833Z,1564.00
2023-03-12T06:13:50.020Z,1580.00
2023-03-12T06:14:50.302Z,1604.00
2023-03-12T06:15:50.582Z,1640.00
2023-03-12T06:16:50.988Z,1668.00
2023-03-12T06:17:51.168Z,1668.00
2023-03-12T06:18:51.454Z,1684.00
2023-03-12T06:19:51.721Z,1704.00
2023-03-12T06:20:52.196Z,1716.00
2023-03-12T06:21:52.353Z,1740.00
2023-03-12T06:22:52.702Z,1764.00
2023-03-12T06:23:52.989Z,1784.00
2023-03-12T06:24:53.234Z,1804.00
2023-03-12T06:25:53.528Z,1820.00
2023-03-12T06:26:53.870Z,1832.00
2023-03-12T06:27:54.290Z,1836.00
2023-03-12T06:28:54.482Z,1852.00
2023-03-12T06:29:54.705Z,1868.00
2023-03-12T06:30:54.993Z,1880.00
2023-03-12T06:31:55.478Z,1900.00
2023-03-12T06:32:55.589Z,1928.00
2023-03-12T06:33:55.823Z,1924.00
2023-03-12T06:34:56.210Z,1944.00
2023-03-12T06:35:56.493Z,1956.00
2023-03-12T06:36:56.915Z,1960.00
2023-03-12T06:37:57.168Z,1980.00
2023-03-12T06:38:57.472Z,1988.00
2023-03-12T06:39:57.584Z,1996.00
2023-03-12T06:40:57.959Z,2008.00
2023-03-12T06:41:58.140Z,2020.00
2023-03-12T06:42:58.375Z,2016.00
2023-03-12T06:43:58.635Z,2040.00
2023-03-12T06:44:58.878Z,2036.00
2023-03-12T06:45:59.174Z,2052.00
2023-03-12T06:46:59.427Z,2068.00
2023-03-12T06:47:59.697Z,2080.00
2023-03-12T06:48:59.956Z,2096.00
2023-03-12T06:50:00.208Z,2116.00
2023-03-12T06:51:00.476Z,2108.00
2023-03-12T06:52:00.749Z,2108.00
2023-03-12T06:53:00.998Z,2120.00
2023-03-12T06:54:01.479Z,2128.00
2023-03-12T06:55:01.575Z,2128.00
2023-03-12T06:56:01.854Z,2136.00
2023-03-12T06:57:02.124Z,2148.00
2023-03-12T06:58:02.368Z,2164.00
2023-03-12T06:59:02.606Z,2152.00
2023-03-12T07:00:02.873Z,2172.00
2023-03-12T07:01:03.117Z,2172.00
2023-03-12T07:02:03.452Z,2172.00
2023-03-12T07:03:03.730Z,2172.00
2023-03-12T07:04:03.980Z,2180.00
2023-03-12T07:05:04.256Z,2200.00
2023-03-12T07:06:04.592Z,2188.00
2023-03-12T07:07:04.911Z,2204.00
2023-03-12T07:08:05.284Z,2220.00
2023-03-12T07:09:05.499Z,2204.00
2023-03-12T07:10:05.776Z,2204.00
2023-03-12T07:11:05.987Z,2200.00
2023-03-12T07:12:06.266Z,2200.00
2023-03-12T07:13:06.606Z,2228.00
2023-03-12T07:14:06.875Z,2240.00
2023-03-12T07:15:07.040Z,2236.00
2023-03-12T07:16:07.528Z,2228.00
2023-03-12T07:17:07.838Z,2248.00
2023-03-12T07:18:08.017Z,2248.00
2023-03-12T07:19:08.373Z,2240.00
2023-03-12T07:20:08.736Z,2248.00
2023-03-12T07:21:09.039Z,2260.00
2023-03-12T07:22:09.436Z,2284.00
2023-03-12T07:23:09.560Z,2296.00
2023-03-12T07:24:09.776Z,2284.00
2023-03-12T07:25:09.973Z,2272.00
2023-03-12T07:26:10.315Z,2268.00
2023-03-12T07:27:10.619Z,2288.00
2023-03-12T07:28:10.814Z,2292.00
2023-03-12T07:29:11.123Z,2292.00
2023-03-12T07:30:11.630Z,2288.00
2023-03-12T07:31:11.752Z,2284.00
2023-03-12T07:32:11.899Z,2288.00
2023-03-12T07:33:12.253Z,2292.00
2023-03-12T07:34:12.618Z,2292.00
2023-03-12T07:35:12.732Z,2288.00
2023-03-12T07:36:13.127Z,2288.00
2023-03-12T07:37:13.446Z,2280.00
2023-03-12T07:38:13.652Z,2292.00
2023-03-12T07:39:13.946Z,2304.00
2023-03-12T07:40:14.318Z,2304.00
2023-03-12T07:41:14.677Z,2304.00
2023-03-12T07:42:14.966Z,2300.00
2023-03-12T07:43:15.121Z,2296.00
2023-03-12T07:44:15.490Z,2304.00
2023-03-12T07:45:16.021Z,2300.00
2023-03-12T07:46:16.058Z,2300.00
2023-03-12T07:47:23.594Z,2312.00
2023-03-12T07:48:17.584Z,2324.00
2023-03-12T07:49:16.815Z,2328.00
2023-03-12T07:50:17.407Z,2324.00
2023-03-12T07:51:17.501Z,2328.00
2023-03-12T07:52:17.740Z,2340.00
2023-03-12T07:53:17.942Z,2344.00
2023-03-12T07:54:18.265Z,2340.00
2023-03-12T07:55:18.689Z,2352.00
2023-03-12T07:56:18.969Z,2372.00
2023-03-12T07:57:19.145Z,2388.00
2023-03-12T07:58:19.472Z,2392.00
2023-03-12T07:59:19.710Z,2404.00
2023-03-12T08:00:20.108Z,2400.00
2023-03-12T08:01:20.230Z,2396.00
2023-03-12T08:02:20.597Z,2392.00
2023-03-12T08:03:21.027Z,2392.00
2023-03-12T08:04:21.270Z,2404.00
2023-03-12T08:05:21.281Z,2424.00
2023-03-12T08:06:21.548Z,2444.00
2023-03-12T08:07:21.923Z,2436.00
2023-03-12T08:08:22.187Z,2432.00
2023-03-12T08:09:22.438Z,2448.00
2023-03-12T08:10:22.751Z,2468.00
2023-03-12T08:11:23.060Z,2504.00
2023-03-12T08:12:23.374Z,2564.00
2023-03-12T08:13:23.751Z,2648.00
2023-03-12T08:14:23.925Z,2776.00
2023-03-12T08:15:24.218Z,2956.00
2023-03-12T08:16:24.538Z,3196.00
2023-03-12T08:17:24.866Z,3520.00
2023-03-12T08:18:25.125Z,3828.00
2023-03-12T08:19:25.439Z,4240.00
2023-03-12T08:20:25.790Z,4712.00
2023-03-12T08:21:26.084Z,4868.00
2023-03-12T08:22:26.409Z,4780.00
2023-03-12T08:23:26.707Z,4784.00
2023-03-12T08:24:27.006Z,4716.00
2023-03-12T08:25:27.430Z,4608.00
2023-03-12T08:26:27.557Z,4460.00
2023-03-12T08:27:27.841Z,4272.00
2023-03-12T08:28:28.149Z,3936.00
2023-03-12T08:29:28.499Z,3728.00
2023-03-12T08:30:30.279Z,3540.00
2023-03-12T08:31:29.108Z,3448.00
2023-03-12T08:32:29.389Z,3532.00
2023-03-12T08:33:29.551Z,3704.00
2023-03-12T08:34:29.874Z,3580.00
2023-03-12T08:35:30.179Z,3712.00
2023-03-12T08:36:30.534Z,3836.00
2023-03-12T08:37:30.742Z,3948.00
2023-03-12T08:38:31.044Z,3964.00
2023-03-12T08:39:31.317Z,3928.00
2023-03-12T08:40:31.630Z,3876.00
2023-03-12T08:41:31.982Z,3740.00
2023-03-12T08:42:32.272Z,3552.00
2023-03-12T08:43:32.623Z,3256.00
2023-03-12T08:44:32.823Z,3164.00
2023-03-12T08:45:33.118Z,3024.00
2023-03-12T08:46:33.448Z,2916.00
2023-03-12T08:47:33.877Z,2812.00
2023-03-12T08:48:33.977Z,2728.00
2023-03-12T08:49:34.241Z,2684.00
2023-03-12T08:50:34.516Z,2656.00
2023-03-12T08:51:34.966Z,2608.00
2023-03-12T08:52:35.189Z,2576.00
2023-03-12T08:53:35.395Z,2608.00
2023-03-12T08:54:35.812Z,2640.00
2023-03-12T08:55:35.955Z,2692.00
2023-03-12T08:56:36.321Z,2752.00
2023-03-12T08:57:36.519Z,2820.00
2023-03-12T08:58:36.790Z,2896.00
2023-03-12T08:59:37.132Z,3056.00
2023-03-12T09:00:37.448Z,3296.00
2023-03-12T09:01:37.754Z,3592.00
2023-03-12T09:02:38.016Z,3948.00
2023-03-12T09:03:38.348Z,4196.00
2023-03-12T09:04:38.706Z,4384.00
2023-03-12T09:05:38.889Z,4736.00
2023-03-12T09:06:39.210Z,5148.00
2023-03-12T09:07:39.558Z,5476.00
2023-03-12T09:08:39.800Z,5860.00
2023-03-12T09:09:39.993Z,6164.00
2023-03-12T09:10:40.365Z,6416.00
2023-03-12T09:11:40.624Z,6612.00
2023-03-12T09:12:40.946Z,6780.00
2023-03-12T09:14:08.133Z,6832.00
2023-03-12T09:15:02.410Z,6816.00
2023-03-12T09:15:42.848Z,6968.00
2023-03-12T09:16:42.178Z,7240.00
2023-03-12T09:17:42.285Z,7452.00
2023-03-12T09:18:42.603Z,7604.00
2023-03-12T09:19:42.868Z,7572.00
2023-03-12T09:20:43.105Z,7488.00
2023-03-12T09:21:43.371Z,7492.00
2023-03-12T09:22:43.681Z,7380.00
2023-03-12T09:23:43.956Z,7108.00
2023-03-12T09:24:44.203Z,6876.00
2023-03-12T09:25:44.491Z,6776.00
2023-03-12T09:26:44.765Z,6768.00
2023-03-12T09:27:45.050Z,6540.00
2023-03-12T09:28:45.322Z,6176.00
2023-03-12T09:29:57.271Z,5944.00
2023-03-12T09:30:46.894Z,5708.00
2023-03-12T09:31:46.229Z,5444.00
2023-03-12T09:32:46.569Z,5188.00
2023-03-12T09:33:47.380Z,5104.00
2023-03-12T09:34:47.084Z,5176.00
2023-03-12T09:35:47.407Z,5336.00
2023-03-12T09:36:47.659Z,5560.00
2023-03-12T09:37:47.956Z,5640.00
2023-03-12T09:38:48.236Z,5700.00
2023-03-12T09:39:48.503Z,5840.00
2023-03-12T09:40:48.760Z,5856.00
2023-03-12T09:41:49.004Z,5972.00
2023-03-12T09:42:49.299Z,6200.00
2023-03-12T09:43:49.572Z,6292.00
2023-03-12T09:44:49.874Z,6444.00
2023-03-12T09:45:50.248Z,6668.00
2023-03-12T09:46:50.386Z,6960.00
2023-03-12T09:47:50.671Z,7232.00
2023-03-12T09:48:50.931Z,7512.00
2023-03-12T09:49:51.161Z,7736.00
2023-03-12T09:50:51.402Z,7828.00
2023-03-12T09:51:51.676Z,7924.00
2023-03-12T09:52:51.969Z,7892.00
2023-03-12T09:53:52.294Z,7844.00
2023-03-12T09:54:52.555Z,7624.00
2023-03-12T09:55:52.805Z,7368.00
2023-03-12T09:56:53.077Z,7224.00
2023-03-12T09:57:53.399Z,7332.00
2023-03-12T09:58:53.656Z,7524.00
2023-03-12T09:59:53.920Z,7844.00
2023-03-12T10:00:54.174Z,8072.00
2023-03-12T10:01:54.455Z,8240.00
2023-03-12T10:02:54.765Z,8304.00
2023-03-12T10:03:55.048Z,8068.00
2023-03-12T10:04:59.715Z,7812.00
2023-03-12T10:05:55.651Z,7708.00
2023-03-12T10:06:55.910Z,7584.00
2023-03-12T10:07:56.229Z,7492.00
2023-03-12T10:08:56.976Z,7516.00
2023-03-12T10:09:56.782Z,7572.00
2023-03-12T10:10:57.129Z,7572.00
2023-03-12T10:11:57.451Z,7528.00
2023-03-12T10:12:57.741Z,7408.00
2023-03-12T10:13:58.011Z,7260.00
2023-03-12T10:14:58.361Z,7084.00
2023-03-12T10:15:58.580Z,6944.00
2023-03-12T10:16:58.846Z,6768.00
2023-03-12T10:17:59.196Z,6668.00
2023-03-12T10:18:59.407Z,6596.00
2023-03-12T10:19:59.621Z,6496.00
2023-03-12T10:20:59.874Z,6420.00
2023-03-12T10:22:00.137Z,6244.00
2023-03-12T10:23:00.443Z,6068.00
2023-03-12T10:24:00.691Z,5888.00
2023-03-12T10:25:00.952Z,5660.00
2023-03-12T10:26:01.212Z,5412.00
2023-03-12T10:27:01.486Z,5152.00
2023-03-12T10:28:01.766Z,4964.00
2023-03-12T10:29:02.051Z,4816.00
2023-03-12T10:30:02.363Z,4820.00
2023-03-12T10:31:02.651Z,4792.00
2023-03-12T10:32:02.934Z,4760.00
2023-03-12T10:33:03.240Z,4880.00
2023-03-12T10:34:03.593Z,4952.00
2023-03-12T10:35:03.767Z,5012.00
2023-03-12T10:36:04.083Z,5116.00
2023-03-12T10:37:04.317Z,5328.00
2023-03-12T10:38:04.658Z,5772.00
2023-03-12T10:39:04.931Z,6280.00
2023-03-12T10:40:05.211Z,6376.00
2023-03-12T10:41:05.495Z,6264.00
2023-03-12T10:42:05.807Z,5968.00
2023-03-12T10:43:06.156Z,5768.00
2023-03-12T10:44:06.399Z,5668.00
2023-03-12T10:45:06.545Z,5632.00
2023-03-12T10:46:06.859Z,5688.00
2023-03-12T10:47:07.097Z,5728.00
2023-03-12T10:48:07.361Z,5720.00
2023-03-12T10:49:07.618Z,5948.00
2023-03-12T10:50:07.978Z,6192.00
2023-03-12T10:51:08.125Z,6028.00
2023-03-12T10:52:08.424Z,6180.00
2023-03-12T10:53:08.706Z,6312.00
2023-03-12T10:54:08.994Z,6444.00
2023-03-12T10:55:09.363Z,6604.00
2023-03-12T10:56:09.523Z,6804.00
2023-03-12T10:57:09.806Z,6644.00
2023-03-12T10:58:10.090Z,6492.00
2023-03-12T10:59:10.347Z,6280.00
2023-03-12T11:00:10.670Z,6160.00
2023-03-12T11:01:10.948Z,6140.00
2023-03-12T11:02:11.227Z,6244.00
2023-03-12T11:03:11.502Z,6376.00
2023-03-12T11:04:11.801Z,6344.00
2023-03-12T11:05:12.109Z,6196.00
2023-03-12T11:06:12.452Z,6068.00
2023-03-12T11:07:12.760Z,6256.00
2023-03-12T11:08:13.043Z,6608.00
2023-03-12T11:09:17.136Z,6840.00
2023-03-12T11:10:14.373Z,6888.00
2023-03-12T11:11:13.865Z,7300.00
2023-03-12T11:12:14.155Z,7652.00
2023-03-12T11:13:14.444Z,7256.00
2023-03-12T11:14:14.732Z,6996.00
2023-03-12T11:15:15.010Z,7040.00
2023-03-12T11:16:15.349Z,6832.00
2023-03-12T11:17:15.653Z,6412.00
2023-03-12T11:18:15.942Z,5864.00
2023-03-12T11:19:16.284Z,5376.00
2023-03-12T11:20:16.579Z,4896.00
2023-03-12T11:21:16.880Z,4600.00
2023-03-12T11:22:17.155Z,4460.00
2023-03-12T11:23:17.435Z,4412.00
2023-03-12T11:24:17.789Z,4404.00
2023-03-12T11:25:17.945Z,3996.00
2023-03-12T11:26:18.294Z,3748.00
2023-03-12T11:27:18.460Z,3788.00
2023-03-12T11:28:18.840Z,3892.00
2023-03-12T11:29:19.068Z,4156.00
2023-03-12T11:30:19.379Z,4280.00
2023-03-12T11:31:19.761Z,4368.00
2023-03-12T11:32:19.943Z,4572.00
2023-03-12T11:33:20.198Z,4924.00
2023-03-12T11:34:20.568Z,5520.00
2023-03-12T11:35:20.856Z,6100.00
2023-03-12T11:36:20.967Z,6268.00
2023-03-12T11:37:21.254Z,6176.00
2023-03-12T11:38:21.537Z,6152.00
2023-03-12T11:39:21.791Z,6592.00
2023-03-12T11:40:22.099Z,7048.00
2023-03-12T11:41:22.467Z,7532.00
2023-03-12T11:42:22.770Z,7776.00
2023-03-12T11:43:39.964Z,7664.00
2023-03-12T11:44:24.328Z,7348.00
2023-03-12T11:45:23.570Z,6784.00
2023-03-12T11:46:23.871Z,6552.00
2023-03-12T11:47:24.186Z,6640.00
2023-03-12T11:48:24.548Z,7312.00
2023-03-12T11:49:24.909Z,8248.00
2023-03-12T11:50:25.058Z,8816.00
2023-03-12T11:51:25.323Z,8536.00
2023-03-12T11:52:25.630Z,7700.00
2023-03-12T11:53:25.979Z,7320.00
2023-03-12T11:54:26.239Z,7272.00
2023-03-12T11:55:26.511Z,7368.00
2023-03-12T11:56:26.876Z,7456.00
2023-03-12T11:57:27.118Z,7528.00
2023-03-12T11:58:27.423Z,7624.00
2023-03-12T11:59:27.835Z,7632.00
2023-03-12T12:00:28.003Z,7980.00
2023-03-12T12:01:28.187Z,8308.00
2023-03-12T12:02:28.529Z,8360.00
2023-03-12T12:03:28.870Z,8084.00
2023-03-12T12:04:29.167Z,7688.00
2023-03-12T12:05:29.347Z,7444.00
2023-03-12T12:06:29.678Z,7508.00
2023-03-12T12:07:29.844Z,7720.00
2023-03-12T12:08:30.106Z,7796.00
2023-03-12T12:09:30.475Z,7872.00
2023-03-12T12:10:30.778Z,7936.00
2023-03-12T12:11:31.096Z,8108.00
2023-03-12T12:12:31.419Z,8248.00
2023-03-12T12:13:31.826Z,8380.00
2023-03-12T12:14:31.947Z,8368.00
2023-03-12T12:15:32.217Z,8244.00
2023-03-12T12:16:32.614Z,8064.00
2023-03-12T12:17:32.856Z,7888.00
2023-03-12T12:18:33.185Z,7820.00
2023-03-12T12:19:33.536Z,7744.00
2023-03-12T12:20:33.609Z,7604.00
2023-03-12T12:21:34.751Z,7564.00
2023-03-12T12:22:34.101Z,7524.00
2023-03-12T12:23:34.440Z,7436.00
2023-03-12T12:24:35.638Z,7328.00
2023-03-12T12:25:35.043Z,7196.00
2023-03-12T12:26:35.297Z,7100.00
2023-03-12T12:27:35.454Z,7076.00
2023-03-12T12:28:35.859Z,6984.00
2023-03-12T12:29:36.841Z,6812.00
2023-03-12T12:30:36.235Z,6724.00
2023-03-12T12:31:36.782Z,6600.00
2023-03-12T12:32:36.908Z,6392.00
2023-03-12T12:33:37.204Z,6720.00
2023-03-12T12:34:37.507Z,6916.00
2023-03-12T12:35:37.958Z,7152.00
2023-03-12T12:36:37.979Z,7056.00
2023-03-12T12:37:38.262Z,7032.00
2023-03-12T12:38:38.755Z,7020.00
2023-03-12T12:39:38.999Z,7000.00